createdAt,value
2015-09-21T00:00:13.202Z,96132
2015-09-21T00:00:31.562Z,96127
2015-09-21T00:00:50.202Z,96132
2015-09-21T00:01:08.673Z,96129
2015-09-21T00:01:27.048Z,96127
2015-09-21T00:01:45.501Z,96138
2015-09-21T00:02:04.003Z,96118
2015-09-21T00:02:22.362Z,96118
2015-09-21T00:02:40.737Z,96138
2015-09-21T00:02:59.159Z,96132
2015-09-21T00:03:17.535Z,96129
2015-09-21T00:03:36.113Z,96118
2015-09-21T00:03:54.551Z,96129
2015-09-21T00:04:13.132Z,96118
2015-09-21T00:04:31.570Z,96115
2015-09-21T00:04:50.335Z,96121
2015-09-21T00:05:08.790Z,96121
2015-09-21T00:05:27.212Z,96121
2015-09-21T00:05:45.431Z,96121
2015-09-21T00:06:03.962Z,96116
2015-09-21T00:06:22.495Z,96113
2015-09-21T00:06:40.917Z,96127
2015-09-21T00:06:59.620Z,96119
2015-09-21T00:07:17.997Z,96119
2015-09-21T00:07:36.935Z,96113
2015-09-21T00:07:55.388Z,96116
2015-09-21T00:08:13.749Z,96117
2015-09-21T00:08:32.140Z,96111
2015-09-21T00:08:50.687Z,96119
2015-09-21T00:09:09.158Z,96119
2015-09-21T00:09:27.845Z,96117
2015-09-21T00:09:46.345Z,96111
2015-09-21T00:10:04.720Z,96119
2015-09-21T00:10:23.082Z,96119
2015-09-21T00:10:41.472Z,96111
2015-09-21T00:10:59.847Z,96119
2015-09-21T00:11:18.396Z,96119
2015-09-21T00:11:36.834Z,96119
2015-09-21T00:11:55.318Z,96111
2015-09-21T00:12:13.741Z,96108
2015-09-21T00:12:32.194Z,96113
2015-09-21T00:12:50.585Z,96113
2015-09-21T00:13:09.194Z,96119
2015-09-21T00:13:27.618Z,96117
2015-09-21T00:13:45.977Z,96108
2015-09-21T00:14:04.352Z,96106
2015-09-21T00:14:22.729Z,96109
2015-09-21T00:14:41.245Z,96117
2015-09-21T00:14:59.714Z,96106
2015-09-21T00:15:18.434Z,96111
2015-09-21T00:15:36.794Z,96117
2015-09-21T00:15:55.231Z,96117
2015-09-21T00:16:13.796Z,96106
2015-09-21T00:16:32.546Z,96106
2015-09-21T00:16:50.968Z,96111
2015-09-21T00:17:09.546Z,96103
2015-09-21T00:17:27.938Z,96112
2015-09-21T00:17:46.313Z,96109
2015-09-21T00:18:04.704Z,96112
2015-09-21T00:18:23.081Z,96112
2015-09-21T00:18:41.456Z,96109
2015-09-21T00:19:00.003Z,96106
2015-09-21T00:19:18.395Z,96103
2015-09-21T00:19:36.786Z,96101
2015-09-21T00:19:55.192Z,96098
2015-09-21T00:20:13.552Z,96109
2015-09-21T00:20:32.007Z,96101
2015-09-21T00:20:50.507Z,96107
2015-09-21T00:21:08.944Z,96101
2015-09-21T00:21:27.524Z,96107
2015-09-21T00:21:46.056Z,96104
2015-09-21T00:22:04.540Z,96106
2015-09-21T00:22:23.042Z,96098
2015-09-21T00:22:41.573Z,96100
2015-09-21T00:23:00.011Z,96109
2015-09-21T00:23:18.480Z,96106
2015-09-21T00:23:37.044Z,96101
2015-09-21T00:23:55.466Z,96109
2015-09-21T00:24:14.169Z,96103
2015-09-21T00:24:32.749Z,96103
2015-09-21T00:24:51.327Z,96101
2015-09-21T00:25:09.702Z,96109
2015-09-21T00:25:28.126Z,96109
2015-09-21T00:25:46.517Z,96103
2015-09-21T00:26:04.892Z,96098
2015-09-21T00:26:23.283Z,96109
2015-09-21T00:26:41.643Z,96098
2015-09-21T00:27:00.143Z,96098
2015-09-21T00:27:18.612Z,96095
2015-09-21T00:27:37.129Z,96098
2015-09-21T00:27:55.614Z,96100
2015-09-21T00:28:14.301Z,96100
2015-09-21T00:28:32.835Z,96109
2015-09-21T00:28:51.195Z,96097
2015-09-21T00:29:09.804Z,96095
2015-09-21T00:29:28.352Z,96100
2015-09-21T00:29:46.727Z,96095
2015-09-21T00:30:04.946Z,96108
2015-09-21T00:30:23.477Z,96100
2015-09-21T00:30:42.010Z,96106
2015-09-21T00:31:00.620Z,96111
2015-09-21T00:31:19.260Z,96097
2015-09-21T00:31:37.637Z,96103
2015-09-21T00:31:56.012Z,96100
2015-09-21T00:32:14.450Z,96105
2015-09-21T00:32:32.967Z,96103
2015-09-21T00:32:51.327Z,96103
2015-09-21T00:33:09.889Z,96097
2015-09-21T00:33:28.266Z,96091
2015-09-21T00:33:46.735Z,96108
2015-09-21T00:34:05.204Z,96103
2015-09-21T00:34:23.766Z,96094
2015-09-21T00:34:42.128Z,96102
2015-09-21T00:35:00.596Z,96097
2015-09-21T00:35:19.049Z,96100
2015-09-21T00:35:37.473Z,96097
2015-09-21T00:35:55.911Z,96094
2015-09-21T00:36:14.442Z,96105
2015-09-21T00:36:32.850Z,96097
2015-09-21T00:36:51.257Z,96097
2015-09-21T00:37:09.616Z,96103
2015-09-21T00:37:28.241Z,96097
2015-09-21T00:37:46.804Z,96100
2015-09-21T00:38:05.148Z,96089
2015-09-21T00:38:23.633Z,96095
2015-09-21T00:38:42.120Z,96100
2015-09-21T00:39:00.495Z,96089
2015-09-21T00:39:18.979Z,96095
2015-09-21T00:39:37.465Z,96086
2015-09-21T00:39:56.027Z,96089
2015-09-21T00:40:14.402Z,96086
2015-09-21T00:40:32.793Z,96092
2015-09-21T00:40:51.201Z,96086
2015-09-21T00:41:09.623Z,96092
2015-09-21T00:41:28.014Z,96087
2015-09-21T00:41:46.719Z,96092
2015-09-21T00:42:05.156Z,96087
2015-09-21T00:42:23.625Z,96090
2015-09-21T00:42:41.971Z,96098
2015-09-21T00:43:01.564Z,96086
2015-09-21T00:43:20.330Z,96092
2015-09-21T00:43:38.771Z,96095
2015-09-21T00:43:57.208Z,96081
2015-09-21T00:44:15.646Z,96087
2015-09-21T00:44:34.161Z,96081
2015-09-21T00:44:52.537Z,96086
2015-09-21T00:45:11.053Z,96089
2015-09-21T00:45:29.459Z,96086
2015-09-21T00:45:47.836Z,96086
2015-09-21T00:46:06.228Z,96089
2015-09-21T00:46:24.665Z,96091
2015-09-21T00:46:43.355Z,96080
2015-09-21T00:47:01.745Z,96078
2015-09-21T00:47:20.277Z,96086
2015-09-21T00:47:38.763Z,96094
2015-09-21T00:47:57.294Z,96070
2015-09-21T00:48:15.935Z,96086
2015-09-21T00:48:34.419Z,96076
2015-09-21T00:48:53.046Z,96091
2015-09-21T00:49:11.515Z,96078
2015-09-21T00:49:30.077Z,96083
2015-09-21T00:49:48.595Z,96083
2015-09-21T00:50:07.220Z,96086
2015-09-21T00:50:25.642Z,96083
2015-09-21T00:50:44.316Z,96091
2015-09-21T00:51:02.706Z,96078
2015-09-21T00:51:21.222Z,96083
2015-09-21T00:51:39.708Z,96076
2015-09-21T00:51:58.052Z,96076
2015-09-21T00:52:16.662Z,96083
2015-09-21T00:52:35.052Z,96083
2015-09-21T00:52:53.429Z,96089
2015-09-21T00:53:12.195Z,96078
2015-09-21T00:53:30.617Z,96089
2015-09-21T00:53:49.056Z,96083
2015-09-21T00:54:07.587Z,96089
2015-09-21T00:54:26.056Z,96084
2015-09-21T00:54:44.543Z,96078
2015-09-21T00:55:03.043Z,96078
2015-09-21T00:55:21.496Z,96081
2015-09-21T00:55:40.355Z,96078
2015-09-21T00:55:58.951Z,96087
2015-09-21T00:56:17.482Z,96087
2015-09-21T00:56:36.045Z,96077
2015-09-21T00:56:54.922Z,96079
2015-09-21T00:57:13.484Z,96077
2015-09-21T00:57:31.890Z,96079
2015-09-21T00:57:50.438Z,96077
2015-09-21T00:58:08.829Z,96090
2015-09-21T00:58:27.204Z,96072
2015-09-21T00:58:45.923Z,96082
2015-09-21T00:59:04.393Z,96082
2015-09-21T00:59:22.940Z,96087
2015-09-21T00:59:41.456Z,96079
2015-09-21T01:00:00.083Z,96079
2015-09-21T01:00:18.661Z,96077
2015-09-21T01:00:37.052Z,96079
2015-09-21T01:00:55.476Z,96078
2015-09-21T01:01:13.851Z,96077
2015-09-21T01:01:32.351Z,96087
2015-09-21T01:01:50.993Z,96081
2015-09-21T01:02:09.368Z,96071
2015-09-21T01:02:28.009Z,96071
2015-09-21T01:02:46.634Z,96071
2015-09-21T01:03:05.074Z,96078
2015-09-21T01:03:23.480Z,96081
2015-09-21T01:03:41.949Z,96078
2015-09-21T01:04:00.606Z,96081
2015-09-21T01:04:19.216Z,96079
2015-09-21T01:04:37.856Z,96078
2015-09-21T01:04:56.375Z,96084
2015-09-21T01:05:14.813Z,96077
2015-09-21T01:05:33.188Z,96076
2015-09-21T01:05:51.844Z,96071
2015-09-21T01:06:10.407Z,96078
2015-09-21T01:06:28.954Z,96077
2015-09-21T01:06:47.501Z,96071
2015-09-21T01:07:05.862Z,96077
2015-09-21T01:07:24.597Z,96074
2015-09-21T01:07:42.987Z,96076
2015-09-21T01:08:01.537Z,96074
2015-09-21T01:08:20.319Z,96073
2015-09-21T01:08:38.787Z,96068
2015-09-21T01:08:57.320Z,96073
2015-09-21T01:09:16.085Z,96067
2015-09-21T01:09:34.757Z,96076
2015-09-21T01:09:53.398Z,96076
2015-09-21T01:10:11.822Z,96078
2015-09-21T01:10:30.228Z,96071
2015-09-21T01:10:49.009Z,96073
2015-09-21T01:11:07.386Z,96071
2015-09-21T01:11:25.777Z,96076
2015-09-21T01:11:44.292Z,96074
2015-09-21T01:12:02.826Z,96074
2015-09-21T01:12:21.372Z,96076
2015-09-21T01:12:40.201Z,96078
2015-09-21T01:12:58.669Z,96068
2015-09-21T01:13:17.265Z,96071
2015-09-21T01:13:35.624Z,96071
2015-09-21T01:13:54.140Z,96071
2015-09-21T01:14:12.594Z,96071
2015-09-21T01:14:31.032Z,96066
2015-09-21T01:14:49.891Z,96066
2015-09-21T01:15:08.300Z,96071
2015-09-21T01:15:26.675Z,96069
2015-09-21T01:15:45.082Z,96066
2015-09-21T01:16:03.442Z,96069
2015-09-21T01:16:22.067Z,96066
2015-09-21T01:16:40.489Z,96061
2015-09-21T01:16:58.958Z,96066
2015-09-21T01:17:17.382Z,96069
2015-09-21T01:17:35.914Z,96064
2015-09-21T01:17:54.320Z,96053
2015-09-21T01:18:13.024Z,96067
2015-09-21T01:18:31.446Z,96064
2015-09-21T01:18:49.883Z,96067
2015-09-21T01:19:08.449Z,96064
2015-09-21T01:19:26.871Z,96064
2015-09-21T01:19:45.480Z,96067
2015-09-21T01:20:04.058Z,96065
2015-09-21T01:20:22.559Z,96054
2015-09-21T01:20:40.981Z,96063
2015-09-21T01:20:59.481Z,96054
2015-09-21T01:21:17.905Z,96054
2015-09-21T01:21:36.343Z,96063
2015-09-21T01:21:54.780Z,96062
2015-09-21T01:22:13.391Z,96052
2015-09-21T01:22:31.720Z,96063
2015-09-21T01:22:50.188Z,96057
2015-09-21T01:23:08.798Z,96057
2015-09-21T01:23:27.191Z,96060
2015-09-21T01:23:45.894Z,96054
2015-09-21T01:24:04.285Z,96057
2015-09-21T01:24:22.771Z,96057
2015-09-21T01:24:41.271Z,96055
2015-09-21T01:24:59.771Z,96068
2015-09-21T01:25:18.148Z,96055
2015-09-21T01:25:36.523Z,96063
2015-09-21T01:25:54.961Z,96044
2015-09-21T01:26:13.385Z,96052
2015-09-21T01:26:31.791Z,96049
2015-09-21T01:26:50.150Z,96047
2015-09-21T01:27:08.557Z,96050
2015-09-21T01:27:26.917Z,96053
2015-09-21T01:28:06.839Z,96045
2015-09-21T01:28:25.216Z,96053
2015-09-21T01:28:43.575Z,96058
2015-09-21T01:29:02.169Z,96047
2015-09-21T01:29:20.624Z,96047
2015-09-21T01:29:38.984Z,96055
2015-09-21T01:29:57.437Z,96052
2015-09-21T01:30:15.798Z,96052
2015-09-21T01:30:34.236Z,96050
2015-09-21T01:30:52.689Z,96055
2015-09-21T01:31:11.048Z,96044
2015-09-21T01:31:29.409Z,96038
2015-09-21T01:31:47.831Z,96047
2015-09-21T01:32:06.191Z,96050
2015-09-21T01:32:24.599Z,96044
2015-09-21T01:32:43.068Z,96052
2015-09-21T01:33:01.552Z,96047
2015-09-21T01:33:20.007Z,96052
2015-09-21T01:33:38.492Z,96055
2015-09-21T01:33:56.882Z,96043
2015-09-21T01:34:15.398Z,96049
2015-09-21T01:34:34.087Z,96050
2015-09-21T01:34:52.509Z,96044
2015-09-21T01:35:10.962Z,96044
2015-09-21T01:35:29.511Z,96042
2015-09-21T01:35:47.980Z,96050
2015-09-21T01:36:06.542Z,96044
2015-09-21T01:36:25.201Z,96041
2015-09-21T01:36:43.810Z,96050
2015-09-21T01:37:02.185Z,96050
2015-09-21T01:37:20.451Z,96039
2015-09-21T01:37:38.843Z,96047
2015-09-21T01:37:57.203Z,96050
2015-09-21T01:38:15.750Z,96042
2015-09-21T01:38:34.252Z,96042
2015-09-21T01:38:52.767Z,96042
2015-09-21T01:39:11.345Z,96036
2015-09-21T01:39:29.924Z,96036
2015-09-21T01:39:48.378Z,96039
2015-09-21T01:40:06.893Z,96044
2015-09-21T01:40:25.287Z,96050
2015-09-21T01:40:43.724Z,96041
2015-09-21T01:41:02.099Z,96044
2015-09-21T01:41:20.568Z,96039
2015-09-21T01:41:38.960Z,96036
2015-09-21T01:41:57.757Z,96049
2015-09-21T01:42:16.288Z,96043
2015-09-21T01:42:34.759Z,96032
2015-09-21T01:42:53.165Z,96046
2015-09-21T01:43:11.571Z,96038
2015-09-21T01:43:29.980Z,96038
2015-09-21T01:43:48.340Z,96046
2015-09-21T01:44:06.918Z,96040
2015-09-21T01:44:25.387Z,96032
2015-09-21T01:44:43.809Z,96051
2015-09-21T01:45:02.388Z,96040
2015-09-21T01:45:20.809Z,96037
2015-09-21T01:45:39.297Z,96040
2015-09-21T01:45:57.672Z,96045
2015-09-21T01:46:16.219Z,96040
2015-09-21T01:46:34.829Z,96035
2015-09-21T01:46:53.485Z,96040
2015-09-21T01:47:12.079Z,96034
2015-09-21T01:47:30.503Z,96031
2015-09-21T01:47:48.862Z,96034
2015-09-21T01:48:07.300Z,96031
2015-09-21T01:48:25.690Z,96028
2015-09-21T01:48:44.083Z,96037
2015-09-21T01:49:02.489Z,96034
2015-09-21T01:49:21.021Z,96034
2015-09-21T01:49:39.413Z,96023
2015-09-21T01:49:58.132Z,96032
2015-09-21T01:50:16.554Z,96032
2015-09-21T01:50:35.009Z,96027
2015-09-21T01:50:53.400Z,96021
2015-09-21T01:51:11.868Z,96026
2015-09-21T01:51:30.634Z,96018
2015-09-21T01:51:49.073Z,96029
2015-09-21T01:52:07.448Z,96021
2015-09-21T01:52:25.823Z,96021
2015-09-21T01:52:44.200Z,96027
2015-09-21T01:53:02.685Z,96027
2015-09-21T01:53:21.091Z,96024
2015-09-21T01:53:39.499Z,96024
2015-09-21T01:53:58.031Z,96032
2015-09-21T01:54:16.702Z,96021
2015-09-21T01:54:35.376Z,96024
2015-09-21T01:54:53.861Z,96019
2015-09-21T01:55:11.720Z,96025
2015-09-21T01:55:30.189Z,96022
2015-09-21T01:55:48.566Z,96022
2015-09-21T01:56:07.050Z,96019
2015-09-21T01:56:25.472Z,96008
2015-09-21T01:56:43.848Z,96014
2015-09-21T01:57:02.286Z,96019
2015-09-21T01:57:20.692Z,96019
2015-09-21T01:57:39.148Z,96022
2015-09-21T01:57:57.898Z,96020
2015-09-21T01:58:16.304Z,96017
2015-09-21T01:58:34.742Z,96023
2015-09-21T01:58:53.228Z,96015
2015-09-21T01:59:12.025Z,96020
2015-09-21T01:59:30.634Z,96012
2015-09-21T01:59:48.995Z,96020
2015-09-21T02:00:07.448Z,96020
2015-09-21T02:00:25.995Z,96017
2015-09-21T02:00:44.388Z,96023
2015-09-21T02:01:02.966Z,96011
2015-09-21T02:01:21.513Z,96016
2015-09-21T02:01:39.983Z,96013
2015-09-21T02:01:58.546Z,96016
2015-09-21T02:02:18.358Z,96013
2015-09-21T02:02:36.811Z,96022
2015-09-21T02:02:55.563Z,96019
2015-09-21T02:03:14.001Z,96017
2015-09-21T02:03:32.423Z,96014
2015-09-21T02:03:50.831Z,96017
2015-09-21T02:04:09.284Z,96014
2015-09-21T02:04:27.909Z,96019
2015-09-21T02:04:46.552Z,96003
2015-09-21T02:05:04.942Z,96011
2015-09-21T02:05:23.333Z,96016
2015-09-21T02:05:41.880Z,96008
2015-09-21T02:06:00.350Z,96019
2015-09-21T02:06:18.725Z,96003
2015-09-21T02:06:37.163Z,96011
2015-09-21T02:06:55.712Z,96014
2015-09-21T02:07:14.196Z,96019
2015-09-21T02:07:32.634Z,96011
2015-09-21T02:07:51.073Z,96008
2015-09-21T02:08:09.464Z,96010
2015-09-21T02:08:28.058Z,96005
2015-09-21T02:08:46.575Z,96016
2015-09-21T02:09:05.013Z,96013
2015-09-21T02:09:23.575Z,96016
2015-09-21T02:09:41.981Z,96010
2015-09-21T02:10:00.373Z,96008
2015-09-21T02:10:18.920Z,96010
2015-09-21T02:10:37.373Z,96013
2015-09-21T02:10:55.797Z,96013
2015-09-21T02:11:14.328Z,96010
2015-09-21T02:11:32.813Z,96016
2015-09-21T02:11:51.159Z,96017
2015-09-21T02:12:09.628Z,96011
2015-09-21T02:12:28.394Z,96005
2015-09-21T02:12:47.706Z,96014
2015-09-21T02:13:06.114Z,96005
2015-09-21T02:13:24.583Z,96008
2015-09-21T02:13:43.036Z,96011
2015-09-21T02:14:01.663Z,96008
2015-09-21T02:14:20.054Z,96009
2015-09-21T02:14:38.866Z,96003
2015-09-21T02:14:57.367Z,96000
2015-09-21T02:15:15.649Z,95995
2015-09-21T02:15:34.305Z,96012
2015-09-21T02:15:52.730Z,95998
2015-09-21T02:16:11.120Z,96009
2015-09-21T02:16:29.574Z,96003
2015-09-21T02:16:48.167Z,96000
2015-09-21T02:17:06.529Z,96006
2015-09-21T02:17:25.216Z,96005
2015-09-21T02:17:43.591Z,96005
2015-09-21T02:18:01.968Z,96008
2015-09-21T02:18:20.343Z,95994
2015-09-21T02:18:38.765Z,95999
2015-09-21T02:18:57.142Z,96002
2015-09-21T02:19:16.033Z,96005
2015-09-21T02:19:34.736Z,95999
2015-09-21T02:19:53.207Z,95997
2015-09-21T02:20:11.582Z,95999
2015-09-21T02:20:29.972Z,96004
2015-09-21T02:20:48.394Z,96009
2015-09-21T02:21:06.801Z,96004
2015-09-21T02:21:25.333Z,95995
2015-09-21T02:21:43.848Z,96009
2015-09-21T02:22:02.256Z,95998
2015-09-21T02:22:20.850Z,95992
2015-09-21T02:22:39.397Z,96001
2015-09-21T02:22:57.790Z,95995
2015-09-21T02:23:16.305Z,95995
2015-09-21T02:23:34.665Z,95992
2015-09-21T02:23:53.024Z,95998
2015-09-21T02:24:11.401Z,95989
2015-09-21T02:24:29.964Z,95981
2015-09-21T02:24:48.432Z,95995
2015-09-21T02:25:06.919Z,96001
2015-09-21T02:25:25.591Z,95995
2015-09-21T02:25:44.216Z,96001
2015-09-21T02:26:02.686Z,95989
2015-09-21T02:26:21.061Z,96003
2015-09-21T02:26:39.421Z,95986
2015-09-21T02:26:57.905Z,95992
2015-09-21T02:27:16.313Z,95997
2015-09-21T02:27:34.813Z,95989
2015-09-21T02:27:53.235Z,95989
2015-09-21T02:28:11.628Z,95994
2015-09-21T02:28:30.097Z,95989
2015-09-21T02:28:48.581Z,95991
2015-09-21T02:29:06.958Z,95997
2015-09-21T02:29:25.458Z,95997
2015-09-21T02:29:43.895Z,95989
2015-09-21T02:30:02.585Z,95991
2015-09-21T02:30:21.069Z,96000
2015-09-21T02:30:39.460Z,95997
2015-09-21T02:30:57.897Z,95988
2015-09-21T02:31:16.321Z,95983
2015-09-21T02:31:34.899Z,95986
2015-09-21T02:31:53.462Z,95989
2015-09-21T02:32:11.823Z,95986
2015-09-21T02:32:30.230Z,95991
2015-09-21T02:32:48.589Z,95994
2015-09-21T02:33:06.841Z,95989
2015-09-21T02:33:25.294Z,95992
2015-09-21T02:33:43.700Z,95986
2015-09-21T02:34:02.060Z,95992
2015-09-21T02:34:20.687Z,95984
2015-09-21T02:34:39.249Z,95986
2015-09-21T02:34:57.640Z,95983
2015-09-21T02:35:16.016Z,95983
2015-09-21T02:35:34.391Z,95989
2015-09-21T02:35:52.922Z,95986
2015-09-21T02:36:11.316Z,95982
2015-09-21T02:36:29.066Z,95982
2015-09-21T02:36:47.488Z,95980
2015-09-21T02:37:05.894Z,95982
2015-09-21T02:37:24.286Z,95977
2015-09-21T02:37:42.990Z,95980
2015-09-21T02:38:01.396Z,95977
2015-09-21T02:38:19.787Z,95983
2015-09-21T02:38:38.162Z,95975
2015-09-21T02:38:56.756Z,95972
2015-09-21T02:39:15.383Z,95978
2015-09-21T02:39:33.758Z,95972
2015-09-21T02:39:52.149Z,95980
2015-09-21T02:40:10.541Z,95989
2015-09-21T02:40:28.932Z,95975
2015-09-21T02:40:47.526Z,95975
2015-09-21T02:41:06.057Z,95980
2015-09-21T02:41:24.465Z,95972
2015-09-21T02:41:42.934Z,95977
2015-09-21T02:42:01.340Z,95980
2015-09-21T02:42:19.702Z,95980
2015-09-21T02:42:38.186Z,95978
2015-09-21T02:42:56.561Z,95983
2015-09-21T02:43:15.064Z,95978
2015-09-21T02:43:33.423Z,95975
2015-09-21T02:43:51.798Z,95984
2015-09-21T02:44:10.283Z,95981
2015-09-21T02:44:28.659Z,95976
2015-09-21T02:44:47.034Z,95984
2015-09-21T02:45:05.393Z,95992
2015-09-21T02:45:23.833Z,95981
2015-09-21T02:45:42.380Z,95981
2015-09-21T02:46:00.801Z,95981
2015-09-21T02:46:19.210Z,95981
2015-09-21T02:46:37.569Z,95978
2015-09-21T02:46:55.991Z,95973
2015-09-21T02:47:14.462Z,95981
2015-09-21T02:47:32.852Z,95981
2015-09-21T02:47:51.212Z,95976
2015-09-21T02:48:09.618Z,95978
2015-09-21T02:48:28.026Z,95978
2015-09-21T02:48:46.557Z,95978
2015-09-21T02:49:05.011Z,95984
2015-09-21T02:49:23.434Z,95987
2015-09-21T02:49:42.013Z,95987
2015-09-21T02:50:00.372Z,95989
2015-09-21T02:50:18.765Z,95989
2015-09-21T02:50:37.186Z,95981
2015-09-21T02:50:55.546Z,95972
2015-09-21T02:51:14.030Z,95978
2015-09-21T02:51:32.392Z,95975
2015-09-21T02:51:50.767Z,95978
2015-09-21T02:52:09.157Z,95978
2015-09-21T02:52:27.597Z,95983
2015-09-21T02:52:46.034Z,95983
2015-09-21T02:53:04.472Z,95975
2015-09-21T02:53:23.019Z,95987
2015-09-21T02:53:41.521Z,95978
2015-09-21T02:53:59.880Z,95981
2015-09-21T02:54:18.239Z,95981
2015-09-21T02:54:36.585Z,95976
2015-09-21T02:54:55.132Z,95982
2015-09-21T02:55:13.632Z,96001
2015-09-21T02:55:32.087Z,95979
2015-09-21T02:55:50.696Z,95979
2015-09-21T02:56:09.103Z,95987
2015-09-21T02:56:27.525Z,95974
2015-09-21T02:56:45.947Z,95982
2015-09-21T02:57:04.494Z,95984
2015-09-21T02:57:22.947Z,95979
2015-09-21T02:57:41.512Z,95984
2015-09-21T02:58:00.215Z,95984
2015-09-21T02:58:18.590Z,95982
2015-09-21T02:58:37.014Z,95982
2015-09-21T02:58:55.764Z,95966
2015-09-21T02:59:14.170Z,95979
2015-09-21T02:59:32.564Z,95973
2015-09-21T02:59:50.939Z,95976
2015-09-21T03:00:09.517Z,95979
2015-09-21T03:00:28.017Z,95979
2015-09-21T03:00:46.503Z,95979
2015-09-21T03:01:04.956Z,95982
2015-09-21T03:01:23.316Z,95977
2015-09-21T03:01:41.801Z,95977
2015-09-21T03:02:00.348Z,95974
2015-09-21T03:02:18.973Z,95974
2015-09-21T03:02:38.022Z,95974
2015-09-21T03:02:56.413Z,95988
2015-09-21T03:03:15.006Z,95974
2015-09-21T03:03:33.868Z,95976
2015-09-21T03:03:52.118Z,95974
2015-09-21T03:04:10.477Z,95980
2015-09-21T03:04:28.977Z,95977
2015-09-21T03:04:47.417Z,95974
2015-09-21T03:05:05.885Z,95977
2015-09-21T03:05:24.385Z,95977
2015-09-21T03:05:42.934Z,95975
2015-09-21T03:06:01.294Z,95984
2015-09-21T03:06:19.903Z,95978
2015-09-21T03:06:38.405Z,95975
2015-09-21T03:06:57.014Z,95981
2015-09-21T03:07:15.452Z,95978
2015-09-21T03:07:34.110Z,95975
2015-09-21T03:07:52.688Z,95972
2015-09-21T03:08:11.235Z,95980
2015-09-21T03:08:29.766Z,95972
2015-09-21T03:08:48.127Z,95972
2015-09-21T03:09:06.814Z,95970
2015-09-21T03:09:25.220Z,95978
2015-09-21T03:09:43.630Z,95981
2015-09-21T03:10:02.223Z,95983
2015-09-21T03:10:20.833Z,95967
2015-09-21T03:10:39.429Z,95981
2015-09-21T03:10:57.913Z,95978
2015-09-21T03:11:16.538Z,95987
2015-09-21T03:11:35.038Z,95979
2015-09-21T03:11:53.539Z,95976
2015-09-21T03:12:12.133Z,95976
2015-09-21T03:12:30.664Z,95982
2015-09-21T03:12:49.026Z,95981
2015-09-21T03:13:07.776Z,95984
2015-09-21T03:13:26.167Z,95979
2015-09-21T03:13:44.528Z,95976
2015-09-21T03:14:02.919Z,95976
2015-09-21T03:14:21.669Z,95979
2015-09-21T03:14:40.185Z,95984
2015-09-21T03:14:58.562Z,95984
2015-09-21T03:15:17.327Z,95978
2015-09-21T03:15:35.937Z,95984
2015-09-21T03:15:54.469Z,95981
2015-09-21T03:16:13.234Z,95975
2015-09-21T03:16:31.625Z,95984
2015-09-21T03:16:50.034Z,95986
2015-09-21T03:17:08.441Z,95981
2015-09-21T03:17:26.800Z,95979
2015-09-21T03:17:45.224Z,95979
2015-09-21T03:18:03.864Z,95987
2015-09-21T03:18:22.224Z,95982
2015-09-21T03:18:40.583Z,95979
2015-09-21T03:18:59.023Z,95976
2015-09-21T03:19:17.429Z,95976
2015-09-21T03:19:35.882Z,95970
2015-09-21T03:19:54.258Z,95981
2015-09-21T03:20:12.649Z,95987
2015-09-21T03:20:31.086Z,95981
2015-09-21T03:20:49.449Z,95973
2015-09-21T03:21:08.027Z,95984
2015-09-21T03:21:26.480Z,95979
2015-09-21T03:21:44.870Z,95979
2015-09-21T03:22:03.309Z,95982
2015-09-21T03:22:21.684Z,95971
2015-09-21T03:22:40.090Z,95977
2015-09-21T03:22:58.765Z,95977
2015-09-21T03:23:17.234Z,95966
2015-09-21T03:23:35.718Z,95971
2015-09-21T03:23:54.283Z,95980
2015-09-21T03:24:12.705Z,95972
2015-09-21T03:24:31.064Z,95974
2015-09-21T03:24:49.548Z,95966
2015-09-21T03:25:08.049Z,95980
2015-09-21T03:25:26.487Z,95977
2015-09-21T03:25:45.190Z,95977
2015-09-21T03:26:03.551Z,95976
2015-09-21T03:26:21.926Z,95979
2015-09-21T03:26:40.301Z,95979
2015-09-21T03:26:58.898Z,95974
2015-09-21T03:27:17.476Z,95971
2015-09-21T03:27:36.054Z,95976
2015-09-21T03:27:54.226Z,95966
2015-09-21T03:28:12.696Z,95976
2015-09-21T03:28:31.149Z,95973
2015-09-21T03:28:49.587Z,95971
2015-09-21T03:29:08.010Z,95966
2015-09-21T03:29:26.292Z,95963
2015-09-21T03:29:44.651Z,95963
2015-09-21T03:30:21.606Z,95981
2015-09-21T03:30:39.466Z,95959
2015-09-21T03:30:57.858Z,95967
2015-09-21T03:31:16.233Z,95972
2015-09-21T03:31:34.639Z,95967
2015-09-21T03:31:53.030Z,95959
2015-09-21T03:32:11.407Z,95960
2015-09-21T03:32:29.813Z,95960
2015-09-21T03:32:48.251Z,95957
2015-09-21T03:33:06.486Z,95971
2015-09-21T03:33:24.939Z,95958
2015-09-21T03:33:43.783Z,95963
2015-09-21T03:34:02.160Z,95955
2015-09-21T03:34:20.676Z,95974
2015-09-21T03:34:39.207Z,95963
2015-09-21T03:34:57.629Z,95961
2015-09-21T03:35:15.991Z,95961
2015-09-21T03:35:34.413Z,95961
2015-09-21T03:35:52.788Z,95958
2015-09-21T03:36:11.211Z,95958
2015-09-21T03:36:29.664Z,95958
2015-09-21T03:36:48.023Z,95961
2015-09-21T03:37:06.463Z,95956
2015-09-21T03:37:25.072Z,95961
2015-09-21T03:37:43.432Z,95956
2015-09-21T03:38:01.918Z,95953
2015-09-21T03:38:20.402Z,95953
2015-09-21T03:38:38.809Z,95945
2015-09-21T03:38:57.168Z,95956
2015-09-21T03:39:15.576Z,95950
2015-09-21T03:39:33.951Z,95953
2015-09-21T03:39:52.326Z,95958
2015-09-21T03:40:10.782Z,95964
2015-09-21T03:40:29.236Z,95948
2015-09-21T03:40:47.611Z,95948
2015-09-21T03:41:06.127Z,95942
2015-09-21T03:41:24.533Z,95950
2015-09-21T03:41:43.002Z,95948
2015-09-21T03:42:01.440Z,95942
2015-09-21T03:42:19.817Z,95942
2015-09-21T03:42:38.504Z,95942
2015-09-21T03:42:57.067Z,95937
2015-09-21T03:43:15.444Z,95948
2015-09-21T03:43:33.850Z,95948
2015-09-21T03:43:52.616Z,95945
2015-09-21T03:44:11.025Z,95945
2015-09-21T03:44:29.606Z,95945
2015-09-21T03:44:47.965Z,95956
2015-09-21T03:45:07.528Z,95937
2015-09-21T03:45:25.031Z,95942
2015-09-21T03:45:43.359Z,95947
2015-09-21T03:46:01.469Z,95945
2015-09-21T03:46:20.166Z,95936
2015-09-21T03:46:38.510Z,95945
2015-09-21T03:46:56.916Z,95950
2015-09-21T03:47:15.325Z,95947
2015-09-21T03:47:33.700Z,95947
2015-09-21T03:47:52.270Z,95956
2015-09-21T03:48:10.646Z,95953
2015-09-21T03:48:29.318Z,95945
2015-09-21T03:48:47.443Z,95948
2015-09-21T03:49:05.787Z,95951
2015-09-21T03:49:24.398Z,95946
2015-09-21T03:49:42.804Z,95948
2015-09-21T03:50:01.273Z,95941
2015-09-21T03:50:19.680Z,95944
2015-09-21T03:50:38.071Z,95946
2015-09-21T03:50:56.587Z,95947
2015-09-21T03:51:15.151Z,95941
2015-09-21T03:51:33.573Z,95950
2015-09-21T03:51:51.526Z,95950
2015-09-21T03:52:09.979Z,95947
2015-09-21T03:52:28.190Z,95947
2015-09-21T03:52:46.815Z,95947
2015-09-21T03:53:05.331Z,95944
2015-09-21T03:53:23.755Z,95952
2015-09-21T03:53:42.302Z,95930
2015-09-21T03:54:00.833Z,95944
2015-09-21T03:54:19.257Z,95946
2015-09-21T03:54:37.491Z,95935
2015-09-21T03:54:55.835Z,95941
2015-09-21T03:55:14.335Z,95941
2015-09-21T03:55:32.712Z,95949
2015-09-21T03:55:51.102Z,95938
2015-09-21T03:56:09.493Z,95930
2015-09-21T03:56:27.900Z,95952
2015-09-21T03:56:46.525Z,95941
2015-09-21T03:57:05.010Z,95942
2015-09-21T03:57:23.548Z,95939
2015-09-21T03:57:41.985Z,95950
2015-09-21T03:58:00.376Z,95939
2015-09-21T03:58:18.973Z,95931
2015-09-21T03:58:37.410Z,95945